createdAt,value
2023-05-23T00:00:01.195Z,17.1
2023-05-23T00:01:02.782Z,17.1
2023-05-23T00:02:01.144Z,17.1
2023-05-23T00:03:01.221Z,17
2023-05-23T00:04:01.560Z,17.1
2023-05-23T00:05:02.043Z,17.1
2023-05-23T00:06:05.695Z,17
2023-05-23T00:07:01.055Z,17
2023-05-23T00:08:01.443Z,17
2023-05-23T00:09:03.840Z,17
2023-05-23T00:10:01.840Z,17.1
2023-05-23T00:11:08.436Z,17.1
2023-05-23T00:12:01.065Z,17.1
2023-05-23T00:13:01.417Z,17.1
2023-05-23T00:14:01.295Z,17.1
2023-05-23T00:15:02.359Z,17
2023-05-23T00:16:12.022Z,17
2023-05-23T00:17:01.167Z,17
2023-05-23T00:18:01.153Z,17
2023-05-23T00:19:01.154Z,17
2023-05-23T00:20:01.140Z,17
2023-05-23T00:21:14.710Z,17
2023-05-23T00:22:01.032Z,17.1
2023-05-23T00:23:01.045Z,17.1
2023-05-23T00:24:01.537Z,17.1
2023-05-23T00:25:01.095Z,17.1
2023-05-23T00:26:01.775Z,17.1
2023-05-23T00:27:01.994Z,17.1
2023-05-23T00:28:04.475Z,17.1
2023-05-23T00:29:01.076Z,17.2
2023-05-23T00:30:01.098Z,17.2
2023-05-23T00:31:01.148Z,17.2
2023-05-23T00:32:01.105Z,17.1
2023-05-23T00:33:01.139Z,17.1
2023-05-23T00:34:01.123Z,17.1
2023-05-23T00:35:01.184Z,17.1
2023-05-23T00:36:01.772Z,17.1
2023-05-23T00:37:01.435Z,17
2023-05-23T00:38:01.253Z,17
2023-05-23T00:39:02.844Z,17
2023-05-23T00:40:01.057Z,17
2023-05-23T00:41:01.271Z,16.9
2023-05-23T00:42:01.993Z,16.8
2023-05-23T00:43:02.099Z,16.8
2023-05-23T00:44:00.970Z,16.7
2023-05-23T00:45:00.697Z,16.6
2023-05-23T00:46:00.467Z,16.6
2023-05-23T00:47:00.158Z,16.6
2023-05-23T00:47:59.986Z,16.6
2023-05-23T00:48:59.779Z,16.6
2023-05-23T00:50:01.459Z,16.6
2023-05-23T00:51:02.129Z,16.6
2023-05-23T00:52:01.123Z,16.6
2023-05-23T00:53:01.053Z,16.6
2023-05-23T00:54:01.279Z,16.6
2023-05-23T00:55:01.274Z,16.5
2023-05-23T00:56:01.308Z,16.5
2023-05-23T00:57:01.499Z,16.5
2023-05-23T00:58:01.082Z,16.5
2023-05-23T00:59:01.091Z,16.5
2023-05-23T01:00:01.087Z,16.5
2023-05-23T01:01:01.644Z,16.5
2023-05-23T01:02:00.847Z,16.5
2023-05-23T01:03:01.166Z,16.5
2023-05-23T01:04:01.447Z,16.5
2023-05-23T01:05:02.183Z,16.4
2023-05-23T01:06:01.706Z,16.4
2023-05-23T01:07:01.206Z,16.3
2023-05-23T01:08:01.175Z,16.3
2023-05-23T01:09:01.039Z,16.3
2023-05-23T01:10:01.042Z,16.2
2023-05-23T01:11:01.034Z,16.2
2023-05-23T01:12:01.490Z,16.2
2023-05-23T01:13:01.544Z,16.2
2023-05-23T01:14:01.237Z,16.3
2023-05-23T01:15:01.131Z,16.3
2023-05-23T01:16:04.014Z,16.4
2023-05-23T01:17:01.184Z,16.5
2023-05-23T01:18:01.252Z,16.5
2023-05-23T01:19:02.613Z,16.5
2023-05-23T01:20:01.471Z,16.5
2023-05-23T01:21:02.071Z,16.5
2023-05-23T01:22:01.857Z,16.6
2023-05-23T01:23:01.583Z,16.6
2023-05-23T01:24:03.978Z,16.7
2023-05-23T01:25:02.572Z,16.7
2023-05-23T01:26:01.155Z,16.7
2023-05-23T01:27:01.304Z,16.7
2023-05-23T01:28:01.429Z,16.6
2023-05-23T01:29:00.973Z,16.6
2023-05-23T01:30:01.075Z,16.5
2023-05-23T01:31:01.073Z,16.5
2023-05-23T01:32:01.051Z,16.4
2023-05-23T01:33:01.131Z,16.3
2023-05-23T01:34:01.008Z,16.3
2023-05-23T01:35:01.106Z,16.3
2023-05-23T01:36:01.201Z,16.3
2023-05-23T01:37:01.514Z,16.3
2023-05-23T01:38:02.190Z,16.3
2023-05-23T01:39:01.110Z,16.2
2023-05-23T01:40:01.158Z,16.2
2023-05-23T01:41:01.038Z,16.2
2023-05-23T01:42:01.555Z,16.2
2023-05-23T01:43:01.121Z,16.2
2023-05-23T01:44:01.130Z,16.1
2023-05-23T01:45:01.188Z,16.1
2023-05-23T01:46:01.196Z,16.1
2023-05-23T01:47:01.687Z,16.1
2023-05-23T01:48:01.901Z,16.1
2023-05-23T01:49:01.802Z,16
2023-05-23T01:50:01.230Z,16.1
2023-05-23T01:51:01.927Z,16.1
2023-05-23T01:52:05.234Z,16.1
2023-05-23T01:53:01.513Z,16.1
2023-05-23T01:54:02.178Z,16.1
2023-05-23T01:55:01.222Z,16.1
2023-05-23T01:56:01.869Z,16.1
2023-05-23T01:57:08.741Z,16.1
2023-05-23T01:58:01.466Z,16.1
2023-05-23T01:59:01.067Z,16.1
2023-05-23T02:00:01.087Z,16.1
2023-05-23T02:01:01.076Z,16.1
2023-05-23T02:02:10.224Z,16.1
2023-05-23T02:03:01.492Z,16.1
2023-05-23T02:04:00.897Z,16.1
2023-05-23T02:05:01.093Z,16.1
2023-05-23T02:06:01.121Z,16
2023-05-23T02:07:12.864Z,16
2023-05-23T02:08:01.136Z,16
2023-05-23T02:09:00.802Z,16.1
2023-05-23T02:10:01.125Z,16.1
2023-05-23T02:11:01.134Z,16.1
2023-05-23T02:12:15.940Z,16.1
2023-05-23T02:13:01.477Z,16.1
2023-05-23T02:14:01.130Z,16.1
2023-05-23T02:15:01.209Z,16.1
2023-05-23T02:16:01.862Z,16.1
2023-05-23T02:17:01.612Z,16.1
2023-05-23T02:18:01.793Z,16.1
2023-05-23T02:19:01.384Z,16.2
2023-05-23T02:20:01.127Z,16.2
2023-05-23T02:21:01.210Z,16.2
2023-05-23T02:22:01.100Z,16.2
2023-05-23T02:23:01.328Z,16.3
2023-05-23T02:24:01.128Z,16.3
2023-05-23T02:25:01.144Z,16.3
2023-05-23T02:26:02.617Z,16.2
2023-05-23T02:27:01.049Z,16.2
2023-05-23T02:28:01.039Z,16.2
2023-05-23T02:29:00.775Z,16.2
2023-05-23T02:30:00.911Z,16.2
2023-05-23T02:31:01.175Z,16.2
2023-05-23T02:32:01.437Z,16.2
2023-05-23T02:33:01.177Z,16.2
2023-05-23T02:34:00.959Z,16.2
2023-05-23T02:35:01.069Z,16.2
2023-05-23T02:36:01.095Z,16.1
2023-05-23T02:37:00.624Z,16.1
2023-05-23T02:38:00.211Z,16
2023-05-23T02:38:59.854Z,16
2023-05-23T02:40:02.154Z,15.9
2023-05-23T02:41:01.137Z,15.9
2023-05-23T02:42:01.099Z,15.9
2023-05-23T02:43:01.712Z,15.9
2023-05-23T02:44:01.737Z,15.9
2023-05-23T02:45:01.748Z,15.9
2023-05-23T02:46:01.074Z,16
2023-05-23T02:47:02.204Z,16
2023-05-23T02:48:01.829Z,16.1
2023-05-23T02:49:01.462Z,16.1
2023-05-23T02:50:01.427Z,16.1
2023-05-23T02:51:01.156Z,16.1
2023-05-23T02:52:00.777Z,16.1
2023-05-23T02:53:00.366Z,16.1
2023-05-23T02:54:00.295Z,16.1
2023-05-23T02:54:59.878Z,16.1
2023-05-23T02:55:59.683Z,16.1
2023-05-23T02:57:01.530Z,16.1
2023-05-23T02:58:01.196Z,16.1
2023-05-23T02:59:01.578Z,16
2023-05-23T03:00:01.140Z,16
2023-05-23T03:01:01.042Z,16
2023-05-23T03:02:01.106Z,16
2023-05-23T03:03:01.124Z,15.9
2023-05-23T03:04:01.679Z,15.8
2023-05-23T03:05:01.873Z,15.8
2023-05-23T03:06:01.663Z,15.8
2023-05-23T03:07:01.161Z,15.8
2023-05-23T03:08:01.933Z,15.8
2023-05-23T03:09:01.167Z,15.9
2023-05-23T03:10:01.549Z,15.8
2023-05-23T03:11:01.174Z,15.9
2023-05-23T03:12:01.203Z,15.9
2023-05-23T03:13:01.165Z,16
2023-05-23T03:14:01.088Z,16
2023-05-23T03:15:01.188Z,16.1
2023-05-23T03:16:01.808Z,16.1
2023-05-23T03:17:02.355Z,16.1
2023-05-23T03:18:01.262Z,16.2
2023-05-23T03:19:02.054Z,16.2
2023-05-23T03:20:02.516Z,16.3
2023-05-23T03:21:01.203Z,16.3
2023-05-23T03:22:01.136Z,16.3
2023-05-23T03:23:01.137Z,16.3
2023-05-23T03:24:01.153Z,16.3
2023-05-23T03:25:00.773Z,16.3
2023-05-23T03:26:00.427Z,16.3
2023-05-23T03:27:00.009Z,16.3
2023-05-23T03:27:59.649Z,16.3
2023-05-23T03:29:01.536Z,16.3
2023-05-23T03:30:01.130Z,16.3
2023-05-23T03:31:01.074Z,16.3
2023-05-23T03:32:01.128Z,16.3
2023-05-23T03:33:01.341Z,16.3
2023-05-23T03:34:01.114Z,16.3
2023-05-23T03:35:01.488Z,16.3
2023-05-23T03:36:01.567Z,16.2
2023-05-23T03:37:01.144Z,16.1
2023-05-23T03:38:03.457Z,16.1
2023-05-23T03:39:01.141Z,16.1
2023-05-23T03:40:00.924Z,16
2023-05-23T03:41:01.199Z,16.1
2023-05-23T03:42:01.185Z,16.1
2023-05-23T03:43:05.311Z,16.1
2023-05-23T03:44:01.423Z,16.1
2023-05-23T03:45:01.169Z,16.1
2023-05-23T03:46:01.260Z,16.1
2023-05-23T03:47:01.958Z,16.1
2023-05-23T03:48:09.367Z,16.1
2023-05-23T03:49:00.687Z,16.1
2023-05-23T03:50:00.303Z,16.1
2023-05-23T03:50:59.967Z,16.1
2023-05-23T03:51:59.888Z,16.1
2023-05-23T03:53:10.158Z,16.1
2023-05-23T03:54:01.292Z,16.1
2023-05-23T03:55:01.118Z,16.2
2023-05-23T03:56:01.130Z,16.2
2023-05-23T03:57:01.169Z,16.2
2023-05-23T03:58:15.182Z,16.3
2023-05-23T03:59:01.162Z,16.2
2023-05-23T04:00:01.359Z,16.2
2023-05-23T04:01:02.098Z,16.2
2023-05-23T04:02:01.452Z,16.2
2023-05-23T04:03:16.900Z,16.2
2023-05-23T04:04:01.826Z,16.2
2023-05-23T04:05:01.094Z,16.2
2023-05-23T04:06:01.074Z,16.2
2023-05-23T04:07:01.488Z,16.2
2023-05-23T04:08:01.134Z,16.3
2023-05-23T04:09:00.896Z,16.3
2023-05-23T04:10:01.220Z,16.3
2023-05-23T04:11:01.346Z,16.2
2023-05-23T04:12:01.355Z,16.2
2023-05-23T04:13:01.561Z,16.2
2023-05-23T04:14:01.182Z,16.2
2023-05-23T04:15:01.202Z,16.2
2023-05-23T04:16:01.211Z,16.2
2023-05-23T04:17:01.063Z,16.2
2023-05-23T04:18:01.135Z,16.2
2023-05-23T04:19:02.016Z,16.2
2023-05-23T04:20:02.056Z,16.1
2023-05-23T04:21:01.643Z,16.1
2023-05-23T04:22:01.019Z,16.1
2023-05-23T04:23:01.019Z,16.1
2023-05-23T04:24:01.089Z,16
2023-05-23T04:25:01.046Z,16
2023-05-23T04:26:01.102Z,16
2023-05-23T04:27:01.098Z,16
2023-05-23T04:28:01.175Z,16
2023-05-23T04:29:00.902Z,15.9
2023-05-23T04:30:01.020Z,15.9
2023-05-23T04:31:01.155Z,15.9
2023-05-23T04:32:01.128Z,15.9
2023-05-23T04:33:01.062Z,15.9
2023-05-23T04:34:00.835Z,15.9
2023-05-23T04:35:01.095Z,15.9
2023-05-23T04:36:01.225Z,15.9
2023-05-23T04:37:01.192Z,15.9
2023-05-23T04:38:01.227Z,16
2023-05-23T04:39:01.152Z,15.9
2023-05-23T04:40:01.160Z,16
2023-05-23T04:41:01.175Z,16
2023-05-23T04:42:01.145Z,16
2023-05-23T04:43:01.158Z,16
2023-05-23T04:44:01.465Z,16
2023-05-23T04:45:01.495Z,16
2023-05-23T04:46:01.435Z,16
2023-05-23T04:47:01.193Z,16
2023-05-23T04:48:01.443Z,15.9
2023-05-23T04:49:01.951Z,15.8
2023-05-23T04:50:01.050Z,15.8
2023-05-23T04:51:01.045Z,15.7
2023-05-23T04:52:01.078Z,15.6
2023-05-23T04:53:01.070Z,15.6
2023-05-23T04:54:01.185Z,15.6
2023-05-23T04:55:03.768Z,15.7
2023-05-23T04:56:01.917Z,15.7
2023-05-23T04:57:01.766Z,15.8
2023-05-23T04:58:01.128Z,15.9
2023-05-23T04:59:01.130Z,15.9
2023-05-23T05:00:02.420Z,16
2023-05-23T05:01:02.146Z,16
2023-05-23T05:02:01.202Z,16
2023-05-23T05:03:01.082Z,16.1
2023-05-23T05:04:01.174Z,16
2023-05-23T05:05:02.571Z,16.1
2023-05-23T05:06:01.964Z,16
2023-05-23T05:07:01.072Z,16
2023-05-23T05:08:00.658Z,16
2023-05-23T05:09:00.337Z,16
2023-05-23T05:10:01.288Z,16
2023-05-23T05:11:02.251Z,16
2023-05-23T05:12:00.770Z,16
2023-05-23T05:13:00.563Z,16
2023-05-23T05:14:00.336Z,16
2023-05-23T05:15:00.340Z,15.9
2023-05-23T05:16:00.198Z,15.9
2023-05-23T05:16:59.958Z,15.8
2023-05-23T05:17:59.772Z,15.8
2023-05-23T05:19:03.470Z,15.8
2023-05-23T05:20:01.395Z,15.8
2023-05-23T05:21:01.629Z,15.8
2023-05-23T05:22:01.140Z,15.8
2023-05-23T05:23:01.104Z,15.8
2023-05-23T05:24:06.691Z,15.8
2023-05-23T05:25:01.090Z,15.8
2023-05-23T05:26:01.090Z,15.8
2023-05-23T05:27:01.090Z,15.8
2023-05-23T05:28:01.186Z,15.9
2023-05-23T05:29:10.468Z,15.9
2023-05-23T05:30:01.700Z,16
2023-05-23T05:31:02.202Z,16
2023-05-23T05:32:01.098Z,16.1
2023-05-23T05:33:01.186Z,16.1
2023-05-23T05:34:12.876Z,16.1
2023-05-23T05:35:01.146Z,16.1
2023-05-23T05:36:01.024Z,16.1
2023-05-23T05:37:01.028Z,16.2
2023-05-23T05:38:01.046Z,16.2
2023-05-23T05:39:16.172Z,16.2
2023-05-23T05:40:01.485Z,16.3
2023-05-23T05:41:01.086Z,16.3
2023-05-23T05:42:01.070Z,16.3
2023-05-23T05:43:01.089Z,16.4
2023-05-23T05:44:01.073Z,16.4
2023-05-23T05:45:01.089Z,16.5
2023-05-23T05:46:01.130Z,16.5
2023-05-23T05:47:01.112Z,16.5
2023-05-23T05:48:01.549Z,16.6
2023-05-23T05:49:01.219Z,16.6
2023-05-23T05:50:01.138Z,16.6
2023-05-23T05:51:02.592Z,16.7
2023-05-23T05:52:01.257Z,16.8
2023-05-23T05:53:01.044Z,16.8
2023-05-23T05:54:01.153Z,16.8
2023-05-23T05:55:01.049Z,16.8
2023-05-23T05:56:01.078Z,16.9
2023-05-23T05:57:02.322Z,16.9
2023-05-23T05:58:01.326Z,17
2023-05-23T05:59:01.393Z,17
2023-05-23T06:00:01.409Z,17
2023-05-23T06:01:01.117Z,16.9
2023-05-23T06:02:01.106Z,16.9
2023-05-23T06:03:01.144Z,16.9
2023-05-23T06:04:01.303Z,16.9
2023-05-23T06:05:01.322Z,16.9
2023-05-23T06:06:01.131Z,16.9
2023-05-23T06:07:01.532Z,16.9
2023-05-23T06:08:01.645Z,16.9
2023-05-23T06:09:01.246Z,16.9
2023-05-23T06:10:04.437Z,16.8
2023-05-23T06:11:01.395Z,16.8
2023-05-23T06:12:01.111Z,16.9
2023-05-23T06:13:01.080Z,16.9
2023-05-23T06:14:01.095Z,17
2023-05-23T06:15:01.091Z,17
2023-05-23T06:16:01.251Z,17.1
2023-05-23T06:17:01.105Z,17.1
2023-05-23T06:18:01.111Z,17.2
2023-05-23T06:19:01.136Z,17.2
2023-05-23T06:20:01.136Z,17.2
2023-05-23T06:21:01.026Z,17.2
2023-05-23T06:22:01.123Z,17.3
2023-05-23T06:23:01.032Z,17.3
2023-05-23T06:24:01.039Z,17.3
2023-05-23T06:25:00.784Z,17.3
2023-05-23T06:26:00.333Z,17.3
2023-05-23T06:26:59.919Z,17.3
2023-05-23T06:27:59.543Z,17.4
2023-05-23T06:29:01.262Z,17.4
2023-05-23T06:30:01.846Z,17.5
2023-05-23T06:31:01.144Z,17.5
2023-05-23T06:32:01.534Z,17.5
2023-05-23T06:33:01.507Z,17.5
2023-05-23T06:34:01.490Z,17.6
2023-05-23T06:35:01.459Z,17.6
2023-05-23T06:36:02.157Z,17.6
2023-05-23T06:37:01.130Z,17.6
2023-05-23T06:38:01.116Z,17.7
2023-05-23T06:39:01.036Z,17.7
2023-05-23T06:40:00.963Z,17.8
2023-05-23T06:41:00.883Z,17.8
2023-05-23T06:42:01.933Z,17.8
2023-05-23T06:43:01.050Z,17.9
2023-05-23T06:44:01.067Z,17.9
2023-05-23T06:45:01.128Z,18
2023-05-23T06:46:01.145Z,18
2023-05-23T06:47:01.202Z,18
2023-05-23T06:48:01.161Z,18
2023-05-23T06:49:13.843Z,18
2023-05-23T06:50:01.503Z,18.1
2023-05-23T06:51:01.548Z,18.1
2023-05-23T06:52:01.513Z,18.1
2023-05-23T06:53:02.369Z,18.1
2023-05-23T06:54:01.131Z,18.2
2023-05-23T06:55:01.056Z,18.2
2023-05-23T06:56:01.359Z,18.2
2023-05-23T06:57:01.448Z,18.2
2023-05-23T06:58:02.218Z,18.2
2023-05-23T06:59:01.051Z,18.2
2023-05-23T07:00:03.498Z,18.3
2023-05-23T07:01:01.068Z,18.3
2023-05-23T07:02:00.873Z,18.3
2023-05-23T07:03:01.267Z,18.3
2023-05-23T07:04:01.113Z,18.4
2023-05-23T07:05:06.015Z,18.4
2023-05-23T07:06:01.569Z,18.4
2023-05-23T07:07:01.176Z,18.4
2023-05-23T07:08:01.125Z,18.4
2023-05-23T07:09:00.900Z,18.5
2023-05-23T07:10:09.190Z,18.5
2023-05-23T07:11:01.316Z,18.5
2023-05-23T07:12:02.743Z,18.5
2023-05-23T07:13:01.970Z,18.5
2023-05-23T07:14:01.207Z,18.5
2023-05-23T07:15:11.721Z,18.6
2023-05-23T07:16:01.061Z,18.6
2023-05-23T07:17:01.145Z,18.6
2023-05-23T07:18:01.091Z,18.6
2023-05-23T07:19:01.106Z,18.6
2023-05-23T07:20:14.973Z,18.6
2023-05-23T07:21:01.098Z,18.6
2023-05-23T07:22:01.185Z,18.6
2023-05-23T07:23:01.104Z,18.7
2023-05-23T07:24:01.125Z,18.7
2023-05-23T07:25:16.243Z,18.7
2023-05-23T07:26:03.098Z,18.8
2023-05-23T07:27:01.815Z,18.8
2023-05-23T07:28:01.045Z,18.8
2023-05-23T07:29:01.064Z,18.8
2023-05-23T07:30:01.016Z,18.8
2023-05-23T07:31:01.113Z,18.9
2023-05-23T07:32:01.018Z,19
2023-05-23T07:33:01.119Z,19
2023-05-23T07:34:01.150Z,19
2023-05-23T07:35:01.780Z,19
2023-05-23T07:36:01.815Z,19
2023-05-23T07:37:01.669Z,19
2023-05-23T07:38:01.306Z,19.1
2023-05-23T07:39:02.077Z,19.1
2023-05-23T07:40:02.144Z,19.1
2023-05-23T07:41:10.739Z,19.1
2023-05-23T07:42:01.444Z,19.1
2023-05-23T07:43:01.652Z,19.1
2023-05-23T07:44:02.149Z,19.1
2023-05-23T07:45:02.079Z,19.1
2023-05-23T07:46:01.095Z,19.2
2023-05-23T07:47:01.149Z,19.2
2023-05-23T07:48:01.093Z,19.2
2023-05-23T07:49:01.102Z,19.2
2023-05-23T07:50:01.106Z,19.3
2023-05-23T07:51:01.231Z,19.3
2023-05-23T07:52:01.102Z,19.3
2023-05-23T07:53:01.285Z,19.3
2023-05-23T07:54:01.412Z,19.4
2023-05-23T07:55:01.419Z,19.5
2023-05-23T07:56:01.175Z,19.5
2023-05-23T07:57:01.034Z,19.6
2023-05-23T07:58:01.034Z,19.7
2023-05-23T07:59:01.058Z,19.8
2023-05-23T08:00:01.040Z,19.8
2023-05-23T08:01:01.761Z,19.8
2023-05-23T08:02:01.101Z,19.8
2023-05-23T08:03:01.061Z,19.8
2023-05-23T08:04:04.279Z,19.8
2023-05-23T08:05:03.935Z,19.8
2023-05-23T08:06:01.266Z,19.7
2023-05-23T08:07:05.385Z,19.7
2023-05-23T08:08:02.805Z,19.7
2023-05-23T08:09:02.630Z,19.6
2023-05-23T08:10:01.135Z,19.6
2023-05-23T08:11:01.117Z,19.6
2023-05-23T08:12:01.160Z,19.7
2023-05-23T08:13:01.169Z,19.6
2023-05-23T08:14:01.644Z,19.7
2023-05-23T08:15:01.039Z,19.7
2023-05-23T08:16:01.483Z,19.7
2023-05-23T08:17:04.083Z,19.7
2023-05-23T08:18:01.181Z,19.8
2023-05-23T08:19:01.086Z,19.8
2023-05-23T08:20:01.076Z,19.8
2023-05-23T08:21:01.072Z,19.8
2023-05-23T08:22:01.322Z,19.8
2023-05-23T08:23:01.491Z,19.8
2023-05-23T08:24:01.228Z,19.8
2023-05-23T08:25:01.192Z,19.9
2023-05-23T08:26:01.140Z,20
2023-05-23T08:27:01.133Z,20
2023-05-23T08:28:01.123Z,20.1
2023-05-23T08:29:01.159Z,20.1
2023-05-23T08:30:00.625Z,20.2
2023-05-23T08:31:00.425Z,20.2
2023-05-23T08:32:00.514Z,20.2
2023-05-23T08:33:00.514Z,20.3
2023-05-23T08:34:00.175Z,20.3
2023-05-23T08:34:59.833Z,20.4
2023-05-23T08:36:03.805Z,20.4
2023-05-23T08:37:01.272Z,20.4
2023-05-23T08:38:01.087Z,20.4
2023-05-23T08:39:01.105Z,20.4
2023-05-23T08:40:01.102Z,20.4
2023-05-23T08:41:01.796Z,20.5
2023-05-23T08:42:01.123Z,20.5
2023-05-23T08:43:01.152Z,20.5
2023-05-23T08:44:01.151Z,20.5
2023-05-23T08:45:01.857Z,20.5
2023-05-23T08:46:01.102Z,20.5
2023-05-23T08:47:01.052Z,20.5
2023-05-23T08:48:01.158Z,20.5
2023-05-23T08:49:00.689Z,20.5
2023-05-23T08:50:00.688Z,20.4
2023-05-23T08:51:02.516Z,20.4
2023-05-23T08:52:01.939Z,20.3
2023-05-23T08:53:01.110Z,20.4
2023-05-23T08:54:01.095Z,20.4
2023-05-23T08:55:01.101Z,20.4
2023-05-23T08:56:05.246Z,20.4
2023-05-23T08:57:01.502Z,20.3
2023-05-23T08:58:02.720Z,20.3
2023-05-23T08:59:01.129Z,20.3
2023-05-23T09:00:01.049Z,20.4
2023-05-23T09:01:08.677Z,20.4
2023-05-23T09:02:01.082Z,20.5
2023-05-23T09:03:01.081Z,20.5
2023-05-23T09:04:01.078Z,20.5
2023-05-23T09:05:01.416Z,20.5
2023-05-23T09:06:11.851Z,20.5
2023-05-23T09:07:01.286Z,20.5
2023-05-23T09:08:01.089Z,20.5
2023-05-23T09:09:00.783Z,20.6
2023-05-23T09:10:00.401Z,20.6
2023-05-23T09:11:13.795Z,20.6
2023-05-23T09:12:01.106Z,20.6
2023-05-23T09:13:01.118Z,20.7
2023-05-23T09:14:01.141Z,20.7
2023-05-23T09:15:01.581Z,20.7
2023-05-23T09:16:15.854Z,20.7
2023-05-23T09:17:03.195Z,20.8
2023-05-23T09:18:03.090Z,20.8
2023-05-23T09:19:01.077Z,20.8
2023-05-23T09:20:01.071Z,20.9
2023-05-23T09:21:01.064Z,21
2023-05-23T09:22:01.076Z,21
2023-05-23T09:23:03.597Z,21.1
2023-05-23T09:24:01.457Z,21.1
2023-05-23T09:25:01.085Z,21.2
2023-05-23T09:26:01.101Z,21.1
2023-05-23T09:27:01.115Z,21.2
2023-05-23T09:28:01.122Z,21.1
2023-05-23T09:29:00.801Z,21.1
2023-05-23T09:30:01.258Z,21.2
2023-05-23T09:31:02.034Z,21.1
2023-05-23T09:32:03.178Z,21.1
2023-05-23T09:33:04.694Z,21.1
2023-05-23T09:34:01.074Z,21.1
2023-05-23T09:35:01.049Z,21.1
2023-05-23T09:36:01.028Z,21.1
2023-05-23T09:37:01.018Z,21.1
2023-05-23T09:38:01.104Z,21.3
2023-05-23T09:39:03.093Z,21.3
2023-05-23T09:40:01.982Z,21.3
2023-05-23T09:41:01.848Z,21.2
2023-05-23T09:42:01.503Z,21.3
2023-05-23T09:43:01.086Z,21.3
2023-05-23T09:44:01.112Z,21.3
2023-05-23T09:45:04.124Z,21.3
2023-05-23T09:46:01.435Z,21.3
2023-05-23T09:47:01.465Z,21.4
2023-05-23T09:48:01.092Z,21.4
2023-05-23T09:49:00.831Z,21.4
2023-05-23T09:50:01.067Z,21.4
2023-05-23T09:51:03.438Z,21.4
2023-05-23T09:52:01.691Z,21.3
2023-05-23T09:53:01.158Z,21.3
2023-05-23T09:54:01.069Z,21.3
2023-05-23T09:55:01.086Z,21.3
2023-05-23T09:56:01.097Z,21.3
2023-05-23T09:57:01.903Z,21.3
2023-05-23T09:58:02.019Z,21.1
2023-05-23T09:59:01.115Z,21.1
2023-05-23T10:00:01.148Z,21.1
2023-05-23T10:01:01.151Z,21.1
2023-05-23T10:02:01.139Z,21.1
2023-05-23T10:03:01.331Z,21.2
2023-05-23T10:04:01.103Z,21.2
2023-05-23T10:05:01.760Z,21.1
2023-05-23T10:06:01.068Z,21.2
2023-05-23T10:07:01.396Z,21.2
2023-05-23T10:08:01.504Z,21.3
2023-05-23T10:09:01.171Z,21.3
2023-05-23T10:10:01.685Z,21.4
2023-05-23T10:11:02.133Z,21.5
2023-05-23T10:12:01.094Z,21.5
2023-05-23T10:13:02.038Z,21.5
2023-05-23T10:14:01.772Z,21.6
2023-05-23T10:15:01.149Z,21.6
2023-05-23T10:16:01.118Z,21.7
2023-05-23T10:17:01.849Z,21.8
2023-05-23T10:18:01.204Z,21.8
2023-05-23T10:19:01.082Z,21.8
2023-05-23T10:20:01.071Z,21.9
2023-05-23T10:21:01.044Z,21.8
2023-05-23T10:22:00.762Z,21.8
2023-05-23T10:23:00.333Z,21.8
2023-05-23T10:23:59.968Z,21.8
2023-05-23T10:24:59.517Z,21.8
2023-05-23T10:26:02.199Z,21.7
2023-05-23T10:27:01.096Z,21.7
2023-05-23T10:28:03.965Z,21.6
2023-05-23T10:29:00.786Z,21.6
2023-05-23T10:30:00.484Z,21.6
2023-05-23T10:31:00.372Z,21.5
2023-05-23T10:32:00.246Z,21.5
2023-05-23T10:32:59.926Z,21.6
2023-05-23T10:33:59.596Z,21.6
2023-05-23T10:35:01.298Z,21.6
2023-05-23T10:36:02.275Z,21.7
2023-05-23T10:37:03.400Z,21.8
2023-05-23T10:38:02.640Z,21.8
2023-05-23T10:39:01.039Z,21.8
2023-05-23T10:40:01.014Z,21.9
2023-05-23T10:41:01.308Z,21.9
2023-05-23T10:42:05.490Z,21.9
2023-05-23T10:43:02.086Z,21.8
2023-05-23T10:44:01.511Z,21.9
2023-05-23T10:45:01.524Z,21.9
2023-05-23T10:46:01.561Z,22
2023-05-23T10:47:08.472Z,22
2023-05-23T10:48:01.273Z,22
2023-05-23T10:49:00.902Z,22.1
2023-05-23T10:50:01.126Z,22.1
2023-05-23T10:51:01.032Z,22.2
2023-05-23T10:52:10.311Z,22.2
2023-05-23T10:53:01.044Z,22.2
2023-05-23T10:54:01.200Z,22.2
2023-05-23T10:55:01.434Z,22.2
2023-05-23T10:56:01.080Z,22.2
2023-05-23T10:57:13.409Z,22.2
2023-05-23T10:58:01.742Z,22.2
2023-05-23T10:59:02.089Z,22.3
2023-05-23T11:00:01.973Z,22.3
2023-05-23T11:01:01.093Z,22.3
2023-05-23T11:02:16.237Z,22.3
2023-05-23T11:03:01.654Z,22.4
2023-05-23T11:04:02.364Z,22.5
2023-05-23T11:05:01.911Z,22.5
2023-05-23T11:06:01.036Z,22.5
2023-05-23T11:07:01.032Z,22.4
2023-05-23T11:08:01.071Z,22.4
2023-05-23T11:09:01.072Z,22.4
2023-05-23T11:10:00.575Z,22.5
2023-05-23T11:11:00.221Z,22.5
2023-05-23T11:11:59.830Z,22.5
2023-05-23T11:13:01.468Z,22.5
2023-05-23T11:14:01.098Z,22.5
2023-05-23T11:15:01.085Z,22.6
2023-05-23T11:16:01.147Z,22.6
2023-05-23T11:17:01.915Z,22.7
2023-05-23T11:18:02.507Z,22.7
2023-05-23T11:19:01.129Z,22.7
2023-05-23T11:20:01.140Z,22.7
2023-05-23T11:21:01.036Z,22.7
2023-05-23T11:22:01.342Z,22.7
2023-05-23T11:23:01.067Z,22.8
2023-05-23T11:24:01.066Z,22.8
2023-05-23T11:25:01.077Z,22.8
2023-05-23T11:26:01.069Z,22.8
2023-05-23T11:27:01.096Z,22.8
2023-05-23T11:28:01.088Z,22.9
2023-05-23T11:29:01.775Z,22.9
2023-05-23T11:30:01.501Z,22.9
2023-05-23T11:31:01.909Z,22.8
2023-05-23T11:32:01.574Z,22.8
2023-05-23T11:33:02.379Z,22.8
2023-05-23T11:34:01.135Z,22.8
2023-05-23T11:35:01.128Z,22.8
2023-05-23T11:36:01.120Z,22.8
2023-05-23T11:37:01.152Z,22.9
2023-05-23T11:38:01.071Z,22.9
2023-05-23T11:39:01.908Z,22.8
2023-05-23T11:40:01.113Z,22.9
2023-05-23T11:41:01.077Z,22.9
2023-05-23T11:42:01.519Z,22.9
2023-05-23T11:43:01.065Z,22.9
2023-05-23T11:44:01.082Z,22.9
2023-05-23T11:45:01.089Z,22.9
2023-05-23T11:46:01.104Z,22.8
2023-05-23T11:47:01.107Z,22.8
2023-05-23T11:48:01.317Z,22.8
2023-05-23T11:49:01.263Z,22.8
2023-05-23T11:50:01.269Z,22.8
2023-05-23T11:51:00.938Z,22.8
2023-05-23T11:52:01.544Z,22.8
2023-05-23T11:53:01.065Z,22.8
2023-05-23T11:54:01.067Z,22.8
2023-05-23T11:55:03.735Z,22.9
2023-05-23T11:56:01.165Z,22.9
2023-05-23T11:57:01.068Z,22.8
2023-05-23T11:58:01.367Z,22.8
2023-05-23T11:59:01.177Z,22.8
2023-05-23T12:00:01.904Z,22.8
2023-05-23T12:01:02.114Z,22.8
2023-05-23T12:02:04.142Z,22.9
2023-05-23T12:03:01.448Z,22.9
2023-05-23T12:04:02.624Z,23
2023-05-23T12:05:01.308Z,23
2023-05-23T12:06:00.920Z,22.9
2023-05-23T12:07:01.144Z,22.8
2023-05-23T12:08:01.150Z,22.8
2023-05-23T12:09:01.039Z,22.6
2023-05-23T12:10:00.773Z,22.6
2023-05-23T12:11:01.128Z,22.5
2023-05-23T12:12:01.093Z,22.5
2023-05-23T12:13:01.027Z,22.5
2023-05-23T12:14:01.021Z,22.4
2023-05-23T12:15:01.477Z,22.5
2023-05-23T12:16:01.513Z,22.5
2023-05-23T12:17:02.159Z,22.5
2023-05-23T12:18:01.161Z,22.5
2023-05-23T12:19:01.785Z,22.4
2023-05-23T12:20:01.108Z,22.5
2023-05-23T12:21:01.738Z,22.4
2023-05-23T12:22:01.114Z,22.4
2023-05-23T12:23:01.539Z,22.3
2023-05-23T12:24:01.051Z,22.3
2023-05-23T12:25:01.031Z,22.3
2023-05-23T12:26:01.049Z,22.3
2023-05-23T12:27:01.054Z,22.3
2023-05-23T12:28:04.239Z,22.3
2023-05-23T12:29:01.075Z,22.3
2023-05-23T12:30:01.081Z,22.1
2023-05-23T12:31:01.098Z,22.1
2023-05-23T12:32:01.246Z,22.1
2023-05-23T12:33:07.347Z,22
2023-05-23T12:34:01.112Z,21.9
2023-05-23T12:35:01.115Z,21.9
2023-05-23T12:36:00.848Z,21.9
2023-05-23T12:37:14.856Z,21.8
2023-05-23T12:38:10.018Z,21.9
2023-05-23T12:39:01.950Z,21.9
2023-05-23T12:40:01.082Z,21.9
2023-05-23T12:41:01.426Z,21.9
2023-05-23T12:42:01.157Z,21.9
2023-05-23T12:43:13.069Z,21.9
2023-05-23T12:44:01.106Z,21.9
2023-05-23T12:45:01.121Z,21.8
2023-05-23T12:46:02.306Z,21.8
2023-05-23T12:47:01.327Z,21.8
2023-05-23T12:48:15.926Z,21.7
2023-05-23T12:49:01.372Z,21.6
2023-05-23T12:50:02.022Z,21.6
2023-05-23T12:51:01.104Z,21.6
2023-05-23T12:52:01.152Z,21.6
2023-05-23T12:53:01.120Z,21.6
2023-05-23T12:54:01.152Z,21.5
2023-05-23T12:55:01.861Z,21.6
2023-05-23T12:56:01.195Z,21.6
2023-05-23T12:57:01.054Z,21.6
2023-05-23T12:58:01.093Z,21.5
2023-05-23T12:59:02.066Z,21.6
2023-05-23T13:00:02.149Z,21.6
2023-05-23T13:01:01.123Z,21.6
2023-05-23T13:02:01.098Z,21.6
2023-05-23T13:03:01.170Z,21.6
2023-05-23T13:04:01.175Z,21.7
2023-05-23T13:05:02.357Z,21.7
2023-05-23T13:06:01.101Z,21.8
2023-05-23T13:07:01.131Z,21.8
2023-05-23T13:08:01.257Z,21.8
2023-05-23T13:09:01.218Z,21.8
2023-05-23T13:10:01.222Z,21.8
2023-05-23T13:11:00.938Z,21.8
2023-05-23T13:12:01.113Z,21.8
2023-05-23T13:13:01.079Z,21.8
2023-05-23T13:14:01.052Z,21.8
2023-05-23T13:15:01.093Z,21.8
2023-05-23T13:16:01.090Z,21.9
2023-05-23T13:17:01.186Z,21.9
2023-05-23T13:18:02.197Z,21.8
2023-05-23T13:19:02.260Z,21.8
2023-05-23T13:20:02.095Z,21.8
2023-05-23T13:21:02.027Z,21.8
2023-05-23T13:22:01.121Z,21.8
2023-05-23T13:23:01.136Z,21.8
2023-05-23T13:24:01.235Z,21.7